Time;durP1;ratioP1;P1;durP2;ratioP2;P2;SDS_P1;SDS_P2;PMS_P1;PMS_P2;Temp;Humidity;BMP_temperature;BMP_pressure;BME280_temperature;BME280_humidity;BME280_pressure;Samples;Min_cycle;Max_cycle;Signal;HPM_P1;HPM_P2
2021/08/16 00:00:48;;;;;;;12.80;3.60;;;;;;;17.00;68.35;100992.00;5134400;27;20105;-36
2021/08/16 00:03:14;;;;;;;15.38;3.80;;;;;;;16.96;69.28;101010.00;5134948;27;20408;-36
2021/08/16 00:05:39;;;;;;;;;;;;;;;17.09;68.36;101009.50;5135116;27;20023;-36
2021/08/16 00:08:07;;;;;;;11.80;3.53;;;;;;;16.93;69.00;101011.38;5134714;27;19922;-36
2021/08/16 00:10:32;;;;;;;14.73;3.22;;;;;;;16.92;69.45;101008.91;5134825;27;20110;-36
2021/08/16 00:12:58;;;;;;;12.90;3.13;;;;;;;16.96;69.27;101010.00;5134630;27;20103;-36
2021/08/16 00:15:23;;;;;;;;;;;;;;;17.07;68.51;101000.72;5135229;27;20454;-36
2021/08/16 00:17:48;;;;;;;11.98;4.03;;;;;;;16.93;69.27;100986.81;5134361;27;20304;-36
2021/08/16 00:20:14;;;;;;;13.80;3.47;;;;;;;16.94;68.88;100982.97;5134686;27;20042;-36
2021/08/16 00:22:39;;;;;;;15.40;3.53;;;;;;;16.81;70.02;100986.22;5134667;27;20015;-37
2021/08/16 00:25:05;;;;;;;;;;;;;;;17.03;68.47;100990.63;5134672;27;20094;-36
2021/08/16 00:27:30;;;;;;;11.00;4.32;;;;;;;16.79;69.86;100982.94;5135068;27;19950;-36
2021/08/16 00:29:55;;;;;;;12.02;3.85;;;;;;;16.84;70.29;100982.13;5134044;27;20328;-36
2021/08/16 00:32:21;;;;;;;11.70;3.20;;;;;;;16.78;70.62;100989.47;5134841;27;20035;-36
2021/08/16 00:34:46;;;;;;;;;;;;;;;16.94;68.97;101001.28;5135464;27;20035;-36
2021/08/16 00:37:11;;;;;;;14.00;3.60;;;;;;;16.82;70.15;100993.31;5133996;27;19907;-36
2021/08/16 00:39:37;;;;;;;12.70;3.60;;;;;;;16.77;70.85;100987.00;5134995;27;20279;-36
2021/08/16 00:42:02;;;;;;;;;;;;;;;16.94;69.54;100984.88;5134909;27;20030;-36
2021/08/16 00:44:27;;;;;;;11.70;3.10;;;;;;;16.87;70.36;100997.97;5134134;27;19914;-36
2021/08/16 00:46:53;;;;;;;;;;;;;;;16.97;69.53;100989.78;5134152;27;20499;-36
2021/08/16 00:49:18;;;;;;;14.98;4.15;;;;;;;16.90;70.21;100984.59;5134375;27;19908;-36
2021/08/16 00:51:44;;;;;;;14.82;4.18;;;;;;;16.86;70.03;100988.94;5134112;27;20101;-36
2021/08/16 00:54:10;;;;;;;;;;;;;;;16.98;69.59;100991.41;5134127;27;20023;-36
2021/08/16 00:56:36;;;;;;;14.38;3.05;;;;;;;16.77;70.38;100981.56;5134707;27;19911;-36
2021/08/16 00:59:03;;;;;;;11.32;3.85;;;;;;;16.94;70.15;100988.44;5134667;27;20339;-36
2021/08/16 01:01:28;;;;;;;12.88;3.90;;;;;;;16.86;70.69;100988.94;5133598;27;20023;-36
2021/08/16 01:03:55;;;;;;;16.20;3.65;;;;;;;16.83;70.55;100977.72;5133878;27;20042;-36
2021/08/16 01:06:20;;;;;;;;;;;;;;;16.99;69.83;100999.38;5134484;27;20098;-36
2021/08/16 01:08:49;;;;;;;11.25;3.60;;;;;;;16.83;70.93;101000.41;5132099;28;19954;-36
2021/08/16 01:11:17;;;;;;;11.10;3.13;;;;;;;16.88;70.32;100994.13;5136274;27;20072;-36
2021/08/16 01:13:43;;;;;;;17.52;3.50;;;;;;;16.90;70.91;101006.44;5138459;27;20027;-36
2021/08/16 01:16:09;;;;;;;13.70;4.25;;;;;;;16.90;71.19;101006.44;5138120;27;20405;-36
2021/08/16 01:18:35;;;;;;;13.75;3.50;;;;;;;16.88;71.14;100992.22;5137666;27;20058;-36
2021/08/16 01:21:01;;;;;;;;;;;;;;;17.04;70.68;101001.28;5138242;27;20348;-36
2021/08/16 01:23:27;;;;;;;11.80;3.55;;;;;;;16.87;71.73;101000.69;5138133;27;19952;-36
2021/08/16 01:25:53;;;;;;;;;;;;;;;16.97;70.84;100996.06;5137251;27;20022;-36
2021/08/16 01:28:19;;;;;;;16.88;3.95;;;;;;;16.83;72.21;101002.31;5137578;27;19907;-36
2021/08/16 01:30:45;;;;;;;;;;;;;;;16.95;71.21;101000.19;5138526;27;20103;-36
2021/08/16 01:33:11;;;;;;;13.23;4.57;;;;;;;16.86;72.49;100996.31;5135821;27;19990;-36
2021/08/16 01:35:36;;;;;;;;;;;;;;;16.95;70.75;101000.19;5138762;27;20106;-36
2021/08/16 01:38:02;;;;;;;15.30;4.37;;;;;;;16.86;72.15;100999.88;5137662;27;19955;-36
2021/08/16 01:40:27;;;;;;;15.48;3.80;;;;;;;16.91;71.84;100991.69;5137631;27;20244;-36
2021/08/16 01:42:53;;;;;;;14.93;3.97;;;;;;;16.83;72.22;100978.56;5137888;27;20019;-36
2021/08/16 01:45:18;;;;;;;13.40;3.97;;;;;;;16.83;72.85;100989.47;5137360;27;20015;-36
2021/08/16 01:47:43;;;;;;;13.93;4.07;;;;;;;16.76;72.79;100982.66;5136143;27;20736;-36
2021/08/16 01:50:09;;;;;;;;;;;;;;;16.97;71.70;100993.34;5137679;27;20023;-36
2021/08/16 01:52:35;;;;;;;12.68;3.45;;;;;;;16.89;72.59;100991.16;5137445;27;19929;-36
2021/08/16 01:55:00;;;;;;;13.05;3.65;;;;;;;16.83;73.09;100989.47;5137324;27;20023;-36
2021/08/16 01:57:26;;;;;;;16.88;3.85;;;;;;;16.81;72.96;100988.13;5137336;27;20435;-36
2021/08/16 01:59:51;;;;;;;13.07;3.67;;;;;;;16.79;73.53;100982.09;5137008;27;20023;-36
2021/08/16 02:02:16;;;;;;;16.02;4.07;;;;;;;16.67;73.13;100963.19;5136034;27;20031;-36
2021/08/16 02:04:42;;;;;;;13.98;3.65;;;;;;;16.80;73.21;100978.28;5137677;27;20023;-36
2021/08/16 02:07:07;;;;;;;16.10;4.32;;;;;;;16.78;73.26;100980.44;5137507;27;20019;-36
2021/08/16 02:09:32;;;;;;;;;;;;;;;16.85;71.95;100970.94;5137503;27;20091;-36
2021/08/16 02:11:57;;;;;;;19.67;5.50;;;;;;;16.68;73.34;100978.47;5137820;27;19904;-36
2021/08/16 02:14:23;;;;;;;;;;;;;;;16.82;72.27;100978.84;5136972;27;20027;-36
2021/08/16 02:16:48;;;;;;;13.17;3.70;;;;;;;16.58;73.87;100968.34;5137094;27;20346;-36
2021/08/16 02:19:13;;;;;;;12.03;3.63;;;;;;;16.64;73.69;100974.63;5137168;27;20573;-36
2021/08/16 02:21:39;;;;;;;13.27;4.00;;;;;;;16.58;74.17;100975.72;5137551;27;20769;-36
2021/08/16 02:24:04;;;;;;;15.30;4.03;;;;;;;16.44;74.33;100957.09;5136061;27;20027;-36
2021/08/16 02:26:29;;;;;;;;;;;;;;;16.66;72.89;100969.75;5137644;27;20027;-36
2021/08/16 02:28:55;;;;;;;14.83;3.67;;;;;;;16.44;74.29;100954.38;5136829;27;19911;-36
2021/08/16 02:31:23;;;;;;;12.37;3.43;;;;;;;16.54;74.44;100963.69;5136758;27;20287;-36
2021/08/16 02:33:50;;;;;;;16.15;4.30;;;;;;;16.53;74.42;100971.06;5136553;27;20728;-36
2021/08/16 02:36:15;;;;;;;14.93;4.68;;;;;;;16.46;74.68;100968.59;5136826;27;20027;-36
2021/08/16 02:38:41;;;;;;;9.07;3.42;;;;;;;16.43;74.57;100962.84;5136207;27;20031;-36
2021/08/16 02:41:06;;;;;;;13.65;3.65;;;;;;;16.46;75.05;100967.78;5136742;27;20204;-36
2021/08/16 02:43:32;;;;;;;14.77;3.67;;;;;;;16.42;75.13;100972.13;5136540;27;20030;-36
2021/08/16 02:45:57;;;;;;;16.52;4.38;;;;;;;16.42;74.92;100963.94;5136165;27;20054;-36
2021/08/16 02:48:22;;;;;;;10.40;3.28;;;;;;;16.41;75.29;100965.84;5136305;27;20100;-36
2021/08/16 02:50:48;;;;;;;8.90;3.80;;;;;;;16.45;75.06;100960.69;5136423;27;20473;-36
2021/08/16 02:53:13;;;;;;;15.27;4.40;;;;;;;16.43;75.46;100963.66;5136520;27;20023;-36
2021/08/16 02:55:38;;;;;;;16.17;4.77;;;;;;;16.43;75.48;100962.84;5135988;27;20061;-36
2021/08/16 02:58:04;;;;;;;14.63;4.17;;;;;;;16.39;75.81;100956.25;5135907;27;20305;-36
2021/08/16 03:00:29;;;;;;;13.50;4.18;;;;;;;16.41;75.90;100946.75;5136146;27;20292;-37
2021/08/16 03:02:54;;;;;;;;;;;;;;;16.55;74.36;100949.78;5136200;27;20107;-36
2021/08/16 03:05:20;;;;;;;16.40;4.30;;;;;;;16.52;75.39;100953.03;5136897;27;19950;-36
2021/08/16 03:07:45;;;;;;;;;;;;;;;16.61;74.26;100956.09;5136407;27;20118;-36
2021/08/16 03:10:13;;;;;;;14.25;4.82;;;;;;;16.43;76.24;100955.47;5136630;27;20226;-36
2021/08/16 03:12:38;;;;;;;14.52;4.78;;;;;;;16.35;76.18;100941.53;5135901;27;20031;-36
2021/08/16 03:15:06;;;;;;;16.50;5.03;;;;;;;16.31;76.50;100943.97;5135795;27;20369;-36
2021/08/16 03:17:32;;;;;;;13.02;4.78;;;;;;;16.39;76.79;100954.34;5135844;27;20011;-36
2021/08/16 03:19:57;;;;;;;12.55;5.38;;;;;;;16.32;76.92;100952.97;5135469;27;20034;-36
2021/08/16 03:22:22;;;;;;;18.13;5.80;;;;;;;16.33;76.56;100955.44;5136121;27;20026;-36
2021/08/16 03:24:48;;;;;;;12.88;5.30;;;;;;;16.38;76.51;100954.63;5136016;27;20011;-36
2021/08/16 03:27:13;;;;;;;16.52;5.20;;;;;;;16.39;76.64;100959.00;5135596;27;20019;-41
2021/08/16 03:29:39;;;;;;;11.95;5.05;;;;;;;16.30;76.86;100944.22;5135880;27;20025;-36
2021/08/16 03:32:04;;;;;;;15.43;5.53;;;;;;;16.32;77.20;100950.25;5135474;27;20042;-36
2021/08/16 03:34:30;;;;;;;19.77;5.35;;;;;;;16.44;76.82;100953.56;5134124;27;20019;-36
2021/08/16 03:36:56;;;;;;;16.63;6.30;;;;;;;16.42;76.73;100963.94;5135288;27;20027;-36
2021/08/16 03:39:22;;;;;;;17.10;6.63;;;;;;;16.30;77.39;100942.34;5135355;27;20045;-36
2021/08/16 03:41:47;;;;;;;15.35;5.85;;;;;;;16.41;77.29;100954.94;5135216;27;20054;-36
2021/08/16 03:44:12;;;;;;;19.67;6.10;;;;;;;16.45;76.96;100955.22;5135305;27;20026;-36
2021/08/16 03:46:38;;;;;;;21.47;6.83;;;;;;;16.44;76.90;100964.47;5135674;27;20268;-36
2021/08/16 03:49:03;;;;;;;17.20;6.57;;;;;;;16.30;77.87;100942.34;5135149;27;20283;-36
2021/08/16 03:51:28;;;;;;;18.03;6.63;;;;;;;16.46;77.48;100962.31;5135406;27;20252;-36
2021/08/16 03:53:53;;;;;;;;;;;;;;;16.51;76.92;100962.34;5135428;27;20051;-36
2021/08/16 03:56:19;;;;;;;14.13;6.80;;;;;;;16.44;77.20;100964.47;5134759;27;19907;-36
2021/08/16 03:58:44;;;;;;;14.43;6.70;;;;;;;16.39;77.51;100953.53;5135184;27;20344;-36
2021/08/16 04:01:10;;;;;;;14.30;7.70;;;;;;;16.39;78.20;100956.25;5135177;27;20558;-36
2021/08/16 04:03:38;;;;;;;18.67;7.38;;;;;;;16.39;78.31;100961.72;5135231;27;20569;-36
2021/08/16 04:06:03;;;;;;;17.13;7.65;;;;;;;16.36;78.37;100954.91;5134582;27;20047;-36
2021/08/16 04:08:28;;;;;;;;;;;;;;;16.46;77.12;100946.75;5135076;27;20490;-36
2021/08/16 04:10:53;;;;;;;16.40;7.93;;;;;;;16.35;78.88;100955.19;5134658;27;19940;-36
2021/08/16 04:13:19;;;;;;;16.90;7.67;;;;;;;16.40;78.33;100950.56;5133507;27;20349;-36
2021/08/16 04:15:44;;;;;;;19.92;8.00;;;;;;;16.40;78.65;100947.00;5135291;27;20248;-36
2021/08/16 04:18:10;;;;;;;17.35;8.20;;;;;;;16.32;78.93;100947.53;5134522;27;20034;-36
2021/08/16 04:20:35;;;;;;;;;;;;;;;16.40;77.26;100947.00;5135759;27;20043;-41
2021/08/16 04:23:00;;;;;;;14.60;7.67;;;;;;;16.22;79.05;100946.38;5134210;27;20444;-36
2021/08/16 04:25:26;;;;;;;14.05;7.60;;;;;;;16.31;78.98;100945.88;5134324;27;20729;-36
2021/08/16 04:27:51;;;;;;;17.50;8.73;;;;;;;16.30;79.59;100949.69;5134095;27;20016;-36
2021/08/16 04:30:16;;;;;;;;;;;;;;;16.39;77.97;100959.00;5134743;27;20023;-36
2021/08/16 04:32:43;;;;;;;17.05;8.00;;;;;;;16.32;78.93;100955.69;5134739;27;19915;-36
2021/08/16 04:35:09;;;;;;;24.73;9.55;;;;;;;16.23;79.21;100928.91;5135023;27;20488;-36
2021/08/16 04:37:38;;;;;;;;;;;;;;;16.39;77.87;100948.91;5134671;27;20030;-36
2021/08/16 04:40:04;;;;;;;18.90;8.38;;;;;;;16.33;79.38;100952.69;5135048;27;19925;-36
2021/08/16 04:42:30;;;;;;;17.58;8.63;;;;;;;16.28;79.89;100944.50;5134358;27;20080;-36
2021/08/16 04:44:55;;;;;;;17.93;9.33;;;;;;;16.20;79.70;100932.19;5134323;27;20022;-36
2021/08/16 04:47:20;;;;;;;19.13;10.13;;;;;;;16.23;80.14;100955.38;5134357;27;20279;-36
2021/08/16 04:49:46;;;;;;;15.88;8.95;;;;;;;16.25;79.85;100952.38;5134053;27;20417;-36
2021/08/16 04:52:11;;;;;;;;;;;;;;;16.35;78.37;100941.53;5134699;27;20073;-36
2021/08/16 04:54:36;;;;;;;20.40;9.87;;;;;;;16.26;80.21;100945.88;5134136;27;19994;-36
2021/08/16 04:57:01;;;;;;;;;;;;;;;16.34;78.44;100946.16;5134144;27;20019;-36
2021/08/16 04:59:27;;;;;;;25.98;11.15;;;;;;;16.25;80.24;100939.59;5133822;27;19903;-36
2021/08/16 05:01:52;;;;;;;16.52;9.52;;;;;;;16.19;80.97;100948.81;5132498;27;20042;-36
2021/08/16 05:04:18;;;;;;;19.40;11.32;;;;;;;16.14;81.20;100937.88;5133908;27;20144;-36
2021/08/16 05:06:43;;;;;;;18.55;10.48;;;;;;;16.22;80.74;100935.47;5134191;27;20276;-36
2021/08/16 05:09:09;;;;;;;20.63;10.68;;;;;;;16.20;80.42;100924.00;5134193;27;20456;-36
2021/08/16 05:11:34;;;;;;;;;;;;;;;16.42;79.54;100936.63;5134695;27;20020;-36
2021/08/16 05:14:00;;;;;;;25.02;11.95;;;;;;;16.41;80.35;100932.28;5133753;28;19903;-36
2021/08/16 05:16:25;;;;;;;19.48;10.98;;;;;;;16.40;80.34;100939.66;5134145;28;20035;-36
2021/08/16 05:18:51;;;;;;;;;;;;;;;16.52;79.18;100933.13;5133940;27;20490;-36
2021/08/16 05:21:17;;;;;;;18.25;10.88;;;;;;;16.44;80.38;100931.72;5133869;27;20369;-36
2021/08/16 05:23:42;;;;;;;15.73;11.52;;;;;;;16.48;80.36;100932.81;5134454;27;20035;-36
2021/08/16 05:26:08;;;;;;;;;;;;;;;16.58;79.45;100932.84;5134623;27;20029;-36
2021/08/16 05:28:33;;;;;;;16.43;11.07;;;;;;;16.42;80.26;100933.91;5133531;28;19994;-36
2021/08/16 05:30:58;;;;;;;24.70;13.00;;;;;;;16.49;80.77;100931.72;5133643;28;20248;-36
2021/08/16 05:33:24;;;;;;;16.48;11.68;;;;;;;16.48;80.93;100928.19;5133138;27;20115;-36
2021/08/16 05:35:49;;;;;;;25.27;13.27;;;;;;;16.43;80.80;100913.72;5133954;27;20031;-36
2021/08/16 05:38:14;;;;;;;;;;;;;;;16.57;79.78;100925.75;5134344;27;20398;-36
2021/08/16 05:40:40;;;;;;;23.10;13.77;;;;;;;16.48;81.17;100928.19;5134249;28;19907;-36
2021/08/16 05:43:05;;;;;;;17.15;12.15;;;;;;;16.43;80.51;100900.06;5133915;28;20380;-36
2021/08/16 05:45:31;;;;;;;20.02;13.52;;;;;;;16.51;81.29;100921.38;5133263;27;20030;-36
2021/08/16 05:47:57;;;;;;;20.42;13.70;;;;;;;16.44;81.14;100909.88;5133558;27;20451;-36
2021/08/16 05:50:23;;;;;;;21.15;13.55;;;;;;;16.51;80.91;100921.38;5134004;28;20032;-36
2021/08/16 05:52:49;;;;;;;21.80;13.20;;;;;;;16.60;80.82;100918.97;5131701;28;20477;-36
2021/08/16 05:55:15;;;;;;;20.17;12.82;;;;;;;16.61;80.83;100915.13;5133819;27;20421;-36
2021/08/16 05:57:40;;;;;;;22.48;13.77;;;;;;;16.67;80.65;100912.13;5134908;27;20095;-36
2021/08/16 06:00:06;;;;;;;;;;;;;;;16.83;80.11;100923.13;5138432;27;20023;-36
2021/08/16 06:02:32;;;;;;;22.23;13.32;;;;;;;16.86;80.11;100928.03;5135931;27;19994;-36
2021/08/16 06:04:58;;;;;;;16.38;12.50;;;;;;;16.97;79.64;100935.16;5137254;27;20027;-36
2021/08/16 06:07:24;;;;;;;17.40;12.50;;;;;;;16.90;79.06;100923.69;5137066;27;20023;-36
2021/08/16 06:09:49;;;;;;;17.92;12.73;;;;;;;16.93;79.59;100934.91;5137154;27;20501;-36
2021/08/16 06:12:14;;;;;;;19.58;12.65;;;;;;;16.96;79.24;100928.06;5136101;27;20127;-35
2021/08/16 06:14:40;;;;;;;19.50;12.23;;;;;;;16.97;79.32;100933.25;5137420;27;20019;-35
2021/08/16 06:17:05;;;;;;;21.48;14.18;;;;;;;16.89;79.79;100920.13;5137241;27;20117;-36
2021/08/16 06:19:32;;;;;;;;;;;;;;;17.02;78.99;100929.69;5135916;27;20034;-36
2021/08/16 06:21:57;;;;;;;20.63;13.20;;;;;;;16.98;79.48;100936.78;5135991;27;19903;-36
2021/08/16 06:24:22;;;;;;;22.73;14.50;;;;;;;16.96;79.87;100928.06;5135555;27;20084;-35
2021/08/16 06:26:48;;;;;;;17.38;13.32;;;;;;;17.00;79.54;100929.16;5136781;27;20306;-36
2021/08/16 06:29:13;;;;;;;;;;;;;;;17.08;78.97;100931.38;5137096;27;20034;-35
2021/08/16 06:31:38;;;;;;;21.60;12.93;;;;;;;16.97;79.82;100924.22;5136607;27;20319;-36
2021/08/16 06:34:06;;;;;;;17.92;13.40;;;;;;;17.02;79.09;100924.22;5136451;27;20706;-36
2021/08/16 06:36:37;;;;;;;23.00;14.27;;;;;;;17.05;79.74;100937.34;5136676;27;20019;-36
2021/08/16 06:39:04;;;;;;;22.50;14.82;;;;;;;17.01;79.63;100929.97;5136673;27;20519;-35
2021/08/16 06:41:29;;;;;;;22.77;13.70;;;;;;;17.04;78.95;100930.25;5137295;27;20020;-35
2021/08/16 06:43:55;;;;;;;23.40;13.93;;;;;;;17.10;79.76;100945.56;5136505;27;20442;-35
2021/08/16 06:46:20;;;;;;;;;;;;;;;17.21;78.81;100946.38;5137437;27;20031;-36
2021/08/16 06:48:45;;;;;;;22.20;13.23;;;;;;;17.18;79.01;100955.16;5136426;27;19914;-35
2021/08/16 06:51:11;;;;;;;17.48;13.02;;;;;;;17.16;79.20;100941.72;5137446;27;20706;-36
2021/08/16 06:53:36;;;;;;;;;;;;;;;17.22;78.67;100943.38;5136468;27;20030;-36
2021/08/16 06:56:01;;;;;;;18.25;13.00;;;;;;;17.08;79.72;100936.81;5136635;27;19908;-36
2021/08/16 06:58:27;;;;;;;;;;;;;;;17.20;78.87;100953.75;5137486;27;20386;-36
2021/08/16 07:00:52;;;;;;;26.83;13.70;;;;;;;17.05;79.73;100942.00;5136460;27;19940;-35
2021/08/16 07:03:17;;;;;;;21.50;13.70;;;;;;;16.98;80.34;100945.84;5135803;27;20292;-36
2021/08/16 07:05:44;;;;;;;22.93;14.47;;;;;;;16.95;80.03;100937.34;5136554;27;20389;-36
2021/08/16 07:08:11;;;;;;;20.15;13.02;;;;;;;17.03;80.52;100946.91;5135758;27;20260;-36
2021/08/16 07:10:36;;;;;;;19.67;12.82;;;;;;;17.08;80.66;100953.22;5136312;27;20109;-35
2021/08/16 07:13:02;;;;;;;28.48;14.27;;;;;;;17.06;81.29;100952.66;5135838;27;20055;-36
2021/08/16 07:15:27;;;;;;;;;;;;;;;17.21;80.70;100958.13;5136793;27;20026;-36
2021/08/16 07:17:53;;;;;;;22.10;14.48;;;;;;;17.08;82.96;100950.50;5136285;27;19926;-36
2021/08/16 07:20:18;;;;;;;20.23;14.35;;;;;;;17.01;83.71;100936.25;5136043;27;20039;-36
2021/08/16 07:22:44;;;;;;;22.95;15.98;;;;;;;16.97;84.23;100952.38;5136274;27;20416;-37
2021/08/16 07:25:09;;;;;;;;;;;;;;;17.10;82.93;100958.41;5136380;27;20019;-36
2021/08/16 07:27:34;;;;;;;22.75;15.07;;;;;;;16.96;85.49;100955.38;5135557;27;19911;-36
2021/08/16 07:30:00;;;;;;;;;;;;;;;17.06;82.81;100958.13;5135924;27;20019;-36
2021/08/16 07:32:25;;;;;;;22.42;14.23;;;;;;;16.93;85.35;100953.16;5136300;27;19923;-37
2021/08/16 07:34:50;;;;;;;22.67;14.20;;;;;;;16.90;84.98;100953.72;5135579;27;20113;-36
2021/08/16 07:37:16;;;;;;;;;;;;;;;16.93;84.71;100961.38;5135751;27;20035;-36
2021/08/16 07:39:41;;;;;;;20.08;15.00;;;;;;;16.75;85.87;100950.97;5135464;27;19925;-35
2021/08/16 07:42:07;;;;;;;;;;;;;;;16.86;84.71;100972.56;5136054;27;20035;-36
2021/08/16 07:44:33;;;;;;;19.60;14.40;;;;;;;16.65;87.03;100960.75;5135603;27;19907;-36
2021/08/16 07:46:59;;;;;;;;;;;;;;;16.86;84.65;100979.94;5136055;27;20106;-36
2021/08/16 07:49:26;;;;;;;15.25;11.95;;;;;;;16.82;86.73;100987.03;5135967;27;19908;-36
2021/08/16 07:51:51;;;;;;;15.40;10.57;;;;;;;16.76;87.24;100974.44;5135048;27;20019;-36
2021/08/16 07:54:17;;;;;;;11.27;9.25;;;;;;;16.89;86.63;100998.53;5135609;27;20454;-36
2021/08/16 07:56:44;;;;;;;12.32;8.82;;;;;;;16.95;87.24;101000.19;5135672;27;20355;-36
2021/08/16 07:59:09;;;;;;;11.50;8.68;;;;;;;17.04;86.52;100993.09;5134642;27;20026;-36
2021/08/16 08:01:34;;;;;;;10.18;7.90;;;;;;;17.18;86.78;100996.13;5135071;27;20023;-36
2021/08/16 08:04:00;;;;;;;;;;;;;;;17.32;84.85;100997.22;5134705;27;20047;-36
2021/08/16 08:06:26;;;;;;;10.43;6.60;;;;;;;17.25;85.50;100993.94;5135177;27;19911;-36
2021/08/16 08:08:51;;;;;;;;;;;;;;;17.32;84.29;100983.53;5135633;27;20110;-36
2021/08/16 08:11:16;;;;;;;6.18;5.57;;;;;;;17.17;85.82;100995.28;5134892;27;20293;-36
2021/08/16 08:13:41;;;;;;;;;;;;;;;17.23;84.45;101004.34;5135488;27;20019;-36
2021/08/16 08:16:07;;;;;;;8.00;4.37;;;;;;;17.03;85.94;100998.81;5135241;27;20258;-36
2021/08/16 08:18:32;;;;;;;6.95;4.18;;;;;;;16.89;86.42;100988.41;5135265;27;20278;-36
2021/08/16 08:20:57;;;;;;;5.57;3.30;;;;;;;16.94;86.46;101002.09;5134374;27;20103;-35
2021/08/16 08:23:23;;;;;;;4.13;2.75;;;;;;;16.75;86.33;100983.75;5134806;27;20023;-36
2021/08/16 08:25:48;;;;;;;5.00;2.85;;;;;;;16.91;86.75;101021.75;5134724;27;20023;-36
2021/08/16 08:28:15;;;;;;;5.13;2.95;;;;;;;16.86;87.62;101029.91;5134728;27;20105;-35
2021/08/16 08:30:45;;;;;;;4.05;2.20;;;;;;;16.84;87.53;101036.75;5134587;27;20025;-36
2021/08/16 08:33:11;;;;;;;2.13;1.15;;;;;;;16.69;87.28;101041.03;5135386;27;20067;-36
2021/08/16 08:35:38;;;;;;;3.30;1.50;;;;;;;16.64;87.46;101051.09;5134800;27;20023;-36
2021/08/16 08:38:03;;;;;;;4.15;1.42;;;;;;;16.52;87.08;101043.13;5134423;27;20093;-36
2021/08/16 08:40:29;;;;;;;4.57;1.50;;;;;;;16.48;86.03;101063.84;5135014;27;20447;-36
2021/08/16 08:42:55;;;;;;;3.15;1.00;;;;;;;16.53;86.79;101065.78;5134540;27;20046;-37
2021/08/16 08:45:21;;;;;;;;;;;;;;;16.63;84.90;101066.66;5134671;27;20114;-36
2021/08/16 08:47:47;;;;;;;3.22;1.40;;;;;;;16.53;85.05;101057.59;5134686;27;19909;-36
2021/08/16 08:50:15;;;;;;;3.78;1.42;;;;;;;16.46;84.34;101066.03;5134926;27;20019;-36
2021/08/16 08:52:41;;;;;;;4.53;2.03;;;;;;;16.48;83.45;101061.13;5134668;27;20117;-36
2021/08/16 08:55:06;;;;;;;6.05;1.67;;;;;;;16.44;83.54;101052.63;5134494;27;20098;-36
2021/08/16 08:57:33;;;;;;;3.80;1.75;;;;;;;16.54;82.28;101064.69;5134352;27;20049;-35
2021/08/16 08:59:58;;;;;;;4.68;1.90;;;;;;;16.75;83.60;101082.03;5134325;27;20023;-37
2021/08/16 09:02:23;;;;;;;6.80;2.70;;;;;;;16.80;83.69;101079.34;5134520;27;20023;-36
2021/08/16 09:04:53;;;;;;;;;;;;;;;16.97;82.47;101083.47;5134579;27;20499;-36
2021/08/16 09:07:35;;;;;;;5.70;2.15;;;;;;;16.97;82.77;101074.47;5134621;27;19911;-36
2021/08/16 09:10:02;;;;;;;5.25;2.05;;;;;;;16.95;83.06;101090.31;5134531;27;20019;-36
2021/08/16 09:12:34;;;;;;;5.85;2.42;;;;;;;16.81;83.59;101094.63;5133957;27;20024;-36
2021/08/16 09:15:01;;;;;;;5.38;2.67;;;;;;;16.81;83.83;101087.25;5134244;27;20424;-36
2021/08/16 09:17:31;;;;;;;7.15;2.17;;;;;;;16.80;82.55;101088.34;5134412;27;20454;-36
2021/08/16 09:19:57;;;;;;;6.07;2.50;;;;;;;16.81;82.28;101100.09;5133908;27;20087;-36
2021/08/16 09:22:32;;;;;;;5.28;2.63;;;;;;;16.86;82.54;101102.84;5134404;27;20511;-36
2021/08/16 09:25:08;;;;;;;9.02;2.90;;;;;;;16.88;82.20;101096.00;5134056;27;20467;-36
2021/08/16 09:27:43;;;;;;;7.68;2.33;;;;;;;16.96;82.03;101108.34;5134868;27;20019;-35
2021/08/16 09:30:09;;;;;;;8.95;2.67;;;;;;;16.99;82.11;101102.34;5134098;27;20090;-37
2021/08/16 09:32:35;;;;;;;10.90;3.17;;;;;;;16.90;81.76;101090.31;5134969;27;20046;-37
2021/08/16 09:35:06;;;;;;;;;;;;;;;17.17;81.02;101103.75;5138618;27;20035;-37
2021/08/16 09:37:32;;;;;;;6.85;3.00;;;;;;;17.10;80.72;101095.00;5138101;27;19908;-35
2021/08/16 09:40:11;;;;;;;7.38;3.22;;;;;;;17.41;80.35;101099.47;5138014;27;20034;-36
2021/08/16 09:42:57;;;;;;;11.43;3.13;;;;;;;17.69;79.85;101094.59;5137998;27;20027;-36
2021/08/16 09:45:33;;;;;;;12.27;3.33;;;;;;;17.79;78.32;101102.00;5138510;27;20062;-36
2021/08/16 09:48:00;;;;;;;8.55;2.60;;;;;;;17.63;79.21;101101.16;5138342;27;20019;-36
2021/08/16 09:50:41;;;;;;;7.50;2.88;;;;;;;17.61;78.90;101120.53;5137814;27;20057;-36
2021/08/16 09:53:09;;;;;;;8.52;3.08;;;;;;;17.40;77.72;101110.66;5138439;27;20026;-36
2021/08/16 09:55:39;;;;;;;6.95;2.55;;;;;;;17.39;78.33;101119.97;5138027;27;20031;-36
2021/08/16 09:58:09;;;;;;;8.50;3.03;;;;;;;17.34;78.53;101112.56;5137976;27;20023;-36
2021/08/16 10:00:36;;;;;;;9.02;2.90;;;;;;;17.29;78.66;101118.03;5138425;27;20030;-36
2021/08/16 10:03:03;;;;;;;6.88;3.20;;;;;;;17.23;79.19;101119.13;5138252;27;20118;-36
2021/08/16 10:05:30;;;;;;;7.97;3.30;;;;;;;17.11;80.04;101116.59;5137924;27;20375;-36
2021/08/16 10:07:57;;;;;;;7.95;3.42;;;;;;;17.24;79.29;101121.56;5137802;27;20031;-36
2021/08/16 10:10:22;;;;;;;7.32;3.42;;;;;;;17.26;79.15;101124.03;5137266;27;20021;-36
2021/08/16 10:12:48;;;;;;;6.32;3.28;;;;;;;17.30;78.80;101129.78;5137730;27;20076;-36
2021/08/16 10:15:14;;;;;;;7.38;3.78;;;;;;;17.34;79.00;101131.72;5137992;27;20050;-36
2021/08/16 10:17:41;;;;;;;;;;;;;;;17.48;78.50;101140.22;5137966;27;20068;-36
2021/08/16 10:20:09;;;;;;;11.73;3.50;;;;;;;17.43;79.42;101149.22;5137466;27;19904;-35
2021/08/16 10:22:36;;;;;;;10.88;3.33;;;;;;;17.49;78.98;101156.34;5137083;27;20019;-35
2021/08/16 10:25:16;;;;;;;7.20;3.53;;;;;;;17.50;78.60;101157.16;5136746;27;20015;-35
2021/08/16 10:27:42;;;;;;;9.10;3.35;;;;;;;17.46;78.38;101143.22;5137011;27;20370;-35
2021/08/16 10:30:16;;;;;;;12.88;4.35;;;;;;;17.60;78.41;101162.66;5136919;27;20022;-35
2021/08/16 10:32:43;;;;;;;8.90;3.80;;;;;;;17.47;76.67;101152.22;5137849;27;20351;-34
2021/08/16 10:35:12;;;;;;;11.75;4.00;;;;;;;17.49;76.34;101164.56;5137383;27;20023;-34
2021/08/16 10:37:40;;;;;;;7.88;3.90;;;;;;;17.44;75.80;101166.44;5136507;27;20020;-35
2021/08/16 10:40:17;;;;;;;11.60;5.25;;;;;;;17.36;76.02;101150.56;5136703;27;20359;-35
2021/08/16 10:42:43;;;;;;;10.40;3.90;;;;;;;17.57;75.73;101174.16;5137484;27;20067;-34
2021/08/16 10:45:09;;;;;;;9.57;4.05;;;;;;;17.56;75.50;101158.00;5136716;27;20102;-36
2021/08/16 10:47:36;;;;;;;10.75;4.55;;;;;;;17.73;75.48;101164.91;5137362;27;20119;-35
2021/08/16 10:50:06;;;;;;;11.40;4.07;;;;;;;17.92;74.06;101178.06;5127512;27;20027;-35
2021/08/16 10:52:33;;;;;;;11.07;4.55;;;;;;;17.92;71.83;101169.88;5116457;28;20308;-36
2021/08/16 10:55:10;;;;;;;;;;;;;;;18.10;73.82;101174.78;5115881;28;20409;-35
2021/08/16 10:57:36;;;;;;;10.52;4.35;;;;;;;17.95;72.10;101170.13;5116002;28;19907;-36
2021/08/16 11:00:01;;;;;;;;;;;;;;;18.16;73.10;101167.41;5115979;28;20018;-36
2021/08/16 11:02:27;;;;;;;10.45;4.50;;;;;;;18.17;71.00;101175.34;5116358;28;19903;-36
2021/08/16 11:04:52;;;;;;;;;;;;;;;18.28;71.20;101182.47;5116243;27;20438;-36
2021/08/16 11:07:23;;;;;;;7.63;4.83;;;;;;;18.24;67.34;101178.63;5115773;28;19955;-36
2021/08/16 11:09:56;;;;;;;11.10;5.32;;;;;;;18.30;67.94;101173.13;5117529;27;20031;-36
2021/08/16 11:12:32;;;;;;;9.52;4.70;;;;;;;18.44;66.89;101172.31;5116408;28;20103;-36
2021/08/16 11:14:57;;;;;;;13.35;6.22;;;;;;;18.61;65.41;101169.28;5133275;27;20422;-36
2021/08/16 11:17:27;;;;;;;;;;;;;;;18.91;65.71;101179.38;5135124;27;20066;-36
2021/08/16 11:19:57;;;;;;;13.32;6.07;;;;;;;18.83;64.23;101187.34;5136008;27;19913;-36
2021/08/16 11:22:22;;;;;;;11.80;6.45;;;;;;;18.88;65.31;101179.09;5136269;27;20439;-36
2021/08/16 11:24:48;;;;;;;;;;;;;;;18.99;65.74;101186.22;5136448;27;20026;-36
2021/08/16 11:27:26;;;;;;;9.60;5.97;;;;;;;18.76;64.33;101179.41;5135916;27;20239;-36